createdAt,value
2022-12-04T00:00:20.243Z,0.07
2022-12-04T00:03:38.493Z,0.10
2022-12-04T00:06:58.688Z,0.14
2022-12-04T00:10:14.853Z,0.14
2022-12-04T00:13:31.217Z,0.13
2022-12-04T00:16:48.261Z,0.10
2022-12-04T00:20:05.026Z,0.11
2022-12-04T00:23:21.692Z,0.14
2022-12-04T00:26:38.675Z,0.15
2022-12-04T00:29:55.443Z,0.14
2022-12-04T00:33:12.130Z,0.14
2022-12-04T00:36:31.407Z,0.17
2022-12-04T00:39:47.618Z,0.18
2022-12-04T00:43:04.111Z,0.11
2022-12-04T00:46:22.368Z,0.18
2022-12-04T00:49:38.714Z,0.11
2022-12-04T00:52:55.224Z,-0.03
2022-12-04T00:56:18.819Z,0.02
2022-12-04T00:59:35.636Z,0.06
2022-12-04T01:02:53.176Z,0.09
2022-12-04T01:06:10.235Z,0.15
2022-12-04T01:09:26.670Z,0.15
2022-12-04T01:12:43.129Z,0.15
2022-12-04T01:15:59.964Z,0.18
2022-12-04T01:19:19.004Z,0.19
2022-12-04T01:22:35.396Z,0.12
2022-12-04T01:26:00.479Z,0.13
2022-12-04T01:29:17.130Z,0.18
2022-12-04T01:32:34.032Z,0.19
2022-12-04T01:35:50.615Z,0.23
2022-12-04T01:39:07.052Z,0.26
2022-12-04T01:42:24.238Z,0.22
2022-12-04T01:45:58.239Z,0.22
2022-12-04T01:49:17.119Z,0.11
2022-12-04T01:52:34.557Z,0.19
2022-12-04T01:55:51.983Z,0.22
2022-12-04T01:59:10.479Z,0.24
2022-12-04T02:02:32.333Z,0.22
2022-12-04T02:05:48.807Z,0.26
2022-12-04T02:09:05.600Z,0.25
2022-12-04T02:12:29.280Z,0.26
2022-12-04T02:15:53.878Z,0.10
2022-12-04T02:19:17.059Z,0.19
2022-12-04T02:22:44.803Z,0.21
2022-12-04T02:26:10.155Z,0.19
2022-12-04T02:29:42.489Z,0.19
2022-12-04T02:33:03.999Z,0.26
2022-12-04T02:36:24.601Z,0.28
2022-12-04T02:39:45.566Z,0.33
2022-12-04T02:43:05.962Z,0.36
2022-12-04T02:46:27.827Z,0.39
2022-12-04T02:49:49.504Z,0.42
2022-12-04T02:53:11.330Z,0.44
2022-12-04T02:56:32.438Z,0.47
2022-12-04T02:59:53.237Z,0.47
2022-12-04T03:03:14.635Z,0.51
2022-12-04T03:06:34.046Z,0.49
2022-12-04T03:09:56.856Z,0.51
2022-12-04T03:13:18.023Z,0.52
2022-12-04T03:16:38.820Z,0.56
2022-12-04T03:20:00.811Z,0.58
2022-12-04T03:23:22.584Z,0.60
2022-12-04T03:26:43.647Z,0.61
2022-12-04T03:30:05.217Z,0.64
2022-12-04T03:33:26.331Z,0.67
2022-12-04T03:36:48.930Z,0.67
2022-12-04T03:40:10.198Z,0.67
2022-12-04T03:43:32.440Z,0.71
2022-12-04T03:46:54.469Z,0.70
2022-12-04T03:50:19.498Z,0.73
2022-12-04T03:53:42.274Z,0.75
2022-12-04T03:57:03.048Z,0.74
2022-12-04T04:00:24.401Z,0.71
2022-12-04T04:03:44.304Z,0.70
2022-12-04T04:07:05.156Z,0.69
2022-12-04T04:10:25.963Z,0.68
2022-12-04T04:14:02.185Z,0.68
2022-12-04T04:17:39.055Z,0.66
2022-12-04T04:21:14.377Z,0.60
2022-12-04T04:24:38.187Z,0.54
2022-12-04T04:28:02.611Z,0.53
2022-12-04T04:31:25.784Z,0.51
2022-12-04T04:34:48.924Z,0.50
2022-12-04T04:38:10.471Z,0.51
2022-12-04T04:41:31.149Z,0.54
2022-12-04T04:44:53.347Z,0.55
2022-12-04T04:48:14.210Z,0.61
2022-12-04T04:51:31.471Z,0.61
2022-12-04T04:54:49.427Z,0.64
2022-12-04T04:58:16.821Z,0.67
2022-12-04T05:01:35.569Z,0.66
2022-12-04T05:04:51.898Z,0.67
2022-12-04T05:08:08.319Z,0.68
2022-12-04T05:11:25.092Z,0.69
2022-12-04T05:14:41.337Z,0.71
2022-12-04T05:17:57.429Z,0.70
2022-12-04T05:21:21.357Z,0.69
2022-12-04T05:24:37.861Z,0.71
2022-12-04T05:27:54.257Z,0.70
2022-12-04T05:31:12.271Z,0.71
2022-12-04T05:34:28.577Z,0.73
2022-12-04T05:37:48.240Z,0.72
2022-12-04T05:41:02.776Z,0.71
2022-12-04T05:44:18.949Z,0.76
2022-12-04T05:47:35.279Z,0.74
2022-12-04T05:50:52.373Z,0.73
2022-12-04T05:54:10.063Z,0.74
2022-12-04T05:57:29.789Z,0.77
2022-12-04T06:00:45.274Z,0.76
2022-12-04T06:04:01.903Z,0.73
2022-12-04T06:07:19.652Z,0.76
2022-12-04T06:10:36.598Z,0.78
2022-12-04T06:13:54.855Z,0.78
2022-12-04T06:17:11.556Z,0.79
2022-12-04T06:20:28.281Z,0.78
2022-12-04T06:23:44.726Z,0.76
2022-12-04T06:27:26.893Z,0.72
2022-12-04T06:30:24.431Z,0.77
2022-12-04T06:33:43.103Z,0.77
2022-12-04T06:37:01.391Z,0.79
2022-12-04T06:40:19.542Z,0.74
2022-12-04T06:43:35.913Z,0.76
2022-12-04T06:46:54.840Z,0.80
2022-12-04T06:50:12.268Z,0.80
2022-12-04T06:53:30.613Z,0.80
2022-12-04T06:56:46.805Z,0.78
2022-12-04T07:00:03.773Z,0.79
2022-12-04T07:03:20.383Z,0.80
2022-12-04T07:06:40.141Z,0.82
2022-12-04T07:09:58.707Z,0.83
2022-12-04T07:13:19.414Z,0.85
2022-12-04T07:16:40.864Z,0.85
2022-12-04T07:19:57.439Z,0.76
2022-12-04T07:23:22.819Z,0.84
2022-12-04T07:26:40.454Z,0.70
2022-12-04T07:29:58.955Z,0.84
2022-12-04T07:33:18.885Z,0.86
2022-12-04T07:36:36.231Z,0.88
2022-12-04T07:39:53.899Z,0.88
2022-12-04T07:43:12.463Z,0.89
2022-12-04T07:46:33.768Z,0.93
2022-12-04T07:49:52.871Z,0.95
2022-12-04T07:53:09.761Z,0.94
2022-12-04T07:56:27.347Z,0.98
2022-12-04T07:59:44.257Z,0.97
2022-12-04T08:03:01.290Z,0.95
2022-12-04T08:06:18.592Z,0.95
2022-12-04T08:09:35.880Z,0.99
2022-12-04T08:12:54.992Z,1.01
2022-12-04T08:16:25.166Z,0.99
2022-12-04T08:19:41.959Z,1.00
2022-12-04T08:23:09.725Z,0.98
2022-12-04T08:26:38.656Z,0.96
2022-12-04T08:29:59.658Z,0.96
2022-12-04T08:42:37.003Z,1.11
2022-12-04T08:46:08.674Z,1.08
2022-12-04T08:49:28.019Z,1.13
2022-12-04T08:52:53.681Z,1.11
2022-12-04T08:56:29.702Z,1.08
2022-12-04T08:59:54.560Z,1.12
2022-12-04T09:04:37.633Z,1.13
2022-12-04T09:08:14.368Z,1.19
2022-12-04T09:11:45.532Z,1.19
2022-12-04T09:15:03.625Z,1.23
2022-12-04T09:18:46.844Z,1.25
2022-12-04T09:22:05.407Z,1.21
2022-12-04T09:25:24.089Z,1.27
2022-12-04T09:28:42.067Z,1.32
2022-12-04T09:32:01.413Z,1.36
2022-12-04T09:35:19.780Z,1.43
2022-12-04T09:38:39.524Z,1.46
2022-12-04T09:42:27.945Z,1.51
2022-12-04T09:45:51.261Z,1.57
2022-12-04T09:49:16.971Z,1.59
2022-12-04T09:52:45.208Z,1.63
2022-12-04T09:56:07.446Z,1.67
2022-12-04T09:59:28.561Z,1.71
2022-12-04T10:02:50.612Z,1.70
2022-12-04T10:06:17.536Z,1.77
2022-12-04T10:09:40.897Z,1.77
2022-12-04T10:13:04.793Z,1.83
2022-12-04T10:16:29.484Z,1.86
2022-12-04T10:19:52.364Z,1.89
2022-12-04T10:23:17.120Z,1.90
2022-12-04T10:26:39.178Z,1.91
2022-12-04T10:30:01.848Z,2.00
2022-12-04T10:33:28.934Z,2.05
2022-12-04T10:36:48.266Z,2.05
2022-12-04T10:40:11.014Z,2.17
2022-12-04T10:43:33.840Z,2.23
2022-12-04T10:46:51.277Z,2.25
2022-12-04T10:50:14.752Z,2.27
2022-12-04T10:53:41.061Z,2.36
2022-12-04T10:57:08.028Z,2.46
2022-12-04T11:00:41.377Z,2.51
2022-12-04T11:04:08.689Z,2.53
2022-12-04T11:07:30.459Z,2.58
2022-12-04T11:10:49.407Z,2.66
2022-12-04T11:14:19.189Z,2.70
2022-12-04T11:17:39.015Z,2.81
2022-12-04T11:21:04.460Z,2.85
2022-12-04T11:24:35.971Z,2.95
2022-12-04T11:27:59.162Z,3.07
2022-12-04T11:31:30.080Z,3.15
2022-12-04T11:34:52.878Z,3.28
2022-12-04T11:38:33.137Z,3.34
2022-12-04T11:41:54.726Z,3.44
2022-12-04T11:45:30.493Z,3.58
2022-12-04T11:49:37.389Z,3.69
2022-12-04T11:53:13.835Z,3.85
2022-12-04T11:56:44.864Z,3.98
2022-12-04T12:00:31.318Z,4.04
2022-12-04T12:04:04.750Z,4.09
2022-12-04T12:07:44.403Z,4.13
2022-12-04T12:11:08.198Z,4.18
2022-12-04T12:14:31.068Z,4.20
2022-12-04T12:17:53.609Z,4.25
2022-12-04T12:21:15.356Z,4.29
2022-12-04T12:24:42.823Z,4.29
2022-12-04T12:28:19.152Z,4.34
2022-12-04T12:32:13.250Z,4.40
2022-12-04T12:35:35.111Z,4.42
2022-12-04T12:38:56.312Z,4.43
2022-12-04T12:42:15.325Z,4.46
2022-12-04T12:45:36.778Z,4.47
2022-12-04T12:49:00.748Z,4.51
2022-12-04T12:52:23.308Z,4.53
2022-12-04T12:55:44.868Z,4.56
2022-12-04T12:59:05.395Z,4.59
2022-12-04T13:02:33.494Z,4.61
2022-12-04T13:05:57.584Z,4.63
2022-12-04T13:09:26.246Z,4.66
2022-12-04T13:12:47.885Z,4.66
2022-12-04T13:16:09.478Z,4.66
2022-12-04T13:19:37.244Z,4.65
2022-12-04T13:23:05.678Z,4.64
2022-12-04T13:26:29.176Z,4.61
2022-12-04T13:30:00.930Z,4.56
2022-12-04T13:34:00.464Z,4.52
2022-12-04T13:37:36.316Z,4.42
2022-12-04T13:40:56.376Z,4.35
2022-12-04T13:44:19.738Z,4.30
2022-12-04T13:47:42.354Z,4.25
2022-12-04T13:51:12.027Z,4.15
2022-12-04T13:54:47.454Z,4.08
2022-12-04T13:58:09.785Z,4.03
2022-12-04T14:06:09.583Z,3.89
2022-12-04T14:09:36.439Z,3.85
2022-12-04T14:12:58.853Z,3.80
2022-12-04T14:16:26.971Z,3.65
2022-12-04T14:19:47.372Z,3.61
2022-12-04T14:23:15.137Z,3.54
2022-12-04T14:27:09.524Z,3.46
2022-12-04T14:30:02.652Z,3.45
2022-12-04T14:36:39.059Z,3.28
2022-12-04T14:39:57.422Z,3.24
2022-12-04T14:43:20.501Z,3.17
2022-12-04T14:46:55.063Z,3.08
2022-12-04T14:53:39.505Z,2.97
2022-12-04T14:57:08.729Z,2.88
2022-12-04T15:00:29.741Z,2.80
2022-12-04T15:03:56.895Z,2.75
2022-12-04T15:07:24.281Z,2.68
2022-12-04T15:11:12.801Z,2.65
2022-12-04T15:14:31.316Z,2.60
2022-12-04T15:21:07.640Z,2.46
2022-12-04T15:24:29.812Z,2.42
2022-12-04T15:27:52.418Z,2.38
2022-12-04T15:31:12.181Z,2.34
2022-12-04T15:37:46.225Z,2.28
2022-12-04T15:41:22.721Z,2.21
2022-12-04T15:44:42.799Z,2.14
2022-12-04T15:51:16.665Z,2.05
2022-12-04T15:54:34.548Z,2.06
2022-12-04T15:57:58.480Z,1.98
2022-12-04T16:01:17.928Z,1.99
2022-12-04T16:08:00.639Z,1.91
2022-12-04T16:11:36.505Z,1.85
2022-12-04T16:15:02.692Z,1.80
2022-12-04T16:21:57.322Z,1.80
2022-12-04T16:25:17.289Z,1.80
2022-12-04T16:28:34.053Z,1.77
2022-12-04T16:31:50.723Z,1.72
2022-12-04T16:35:07.824Z,1.68
2022-12-04T16:38:27.327Z,1.66
2022-12-04T16:41:48.094Z,1.65
2022-12-04T16:45:06.340Z,1.64
2022-12-04T16:51:38.752Z,1.63
2022-12-04T16:54:58.328Z,1.60
2022-12-04T16:58:14.369Z,1.52
2022-12-04T17:01:37.144Z,1.49
2022-12-04T17:04:58.347Z,1.44
2022-12-04T17:08:18.157Z,1.47
2022-12-04T17:11:34.753Z,1.42
2022-12-04T17:14:56.215Z,1.42
2022-12-04T17:23:05.322Z,1.36
2022-12-04T17:26:23.350Z,1.38
2022-12-04T17:29:39.660Z,1.32
2022-12-04T17:32:56.199Z,1.27
2022-12-04T17:39:29.118Z,1.22
2022-12-04T17:42:46.825Z,1.22
2022-12-04T17:46:04.736Z,1.19
2022-12-04T17:49:22.355Z,1.19
2022-12-04T17:52:40.486Z,1.15
2022-12-04T17:55:57.412Z,1.17
2022-12-04T17:59:14.780Z,1.16
2022-12-04T18:02:31.725Z,1.10
2022-12-04T18:05:48.633Z,1.11
2022-12-04T18:09:08.077Z,1.11
2022-12-04T18:12:24.652Z,1.12
2022-12-04T18:15:42.589Z,1.13
2022-12-04T18:22:18.635Z,1.13
2022-12-04T18:25:35.091Z,1.14
2022-12-04T18:29:13.261Z,1.12
2022-12-04T18:32:34.192Z,1.10
2022-12-04T18:39:16.955Z,1.13
2022-12-04T18:42:51.193Z,1.15
2022-12-04T18:46:18.285Z,1.13
2022-12-04T18:53:11.234Z,1.21
2022-12-04T18:56:34.508Z,1.21
2022-12-04T18:59:57.512Z,1.21
2022-12-04T19:03:21.558Z,1.21
2022-12-04T19:10:14.526Z,1.19
2022-12-04T19:13:18.184Z,1.18
2022-12-04T19:16:40.235Z,1.21
2022-12-04T19:19:58.075Z,1.25
2022-12-04T19:23:17.512Z,1.20
2022-12-04T19:26:35.929Z,1.20
2022-12-04T19:29:55.554Z,1.23
2022-12-04T19:33:28.675Z,1.21
2022-12-04T19:36:50.071Z,1.19
2022-12-04T19:40:07.006Z,1.17
2022-12-04T19:43:23.609Z,1.13
2022-12-04T19:46:41.367Z,1.14
2022-12-04T19:53:14.995Z,1.17
2022-12-04T19:56:36.009Z,1.16
2022-12-04T19:59:53.300Z,1.13
2022-12-04T20:03:09.662Z,1.14
2022-12-04T20:09:46.060Z,1.19
2022-12-04T20:13:01.560Z,1.20
2022-12-04T20:16:22.194Z,1.21
2022-12-04T20:19:38.810Z,1.21
2022-12-04T20:22:55.932Z,1.23
2022-12-04T20:26:17.061Z,1.25
2022-12-04T20:29:35.015Z,1.25
2022-12-04T20:32:51.642Z,1.24
2022-12-04T20:39:27.137Z,1.29
2022-12-04T20:42:44.109Z,1.29
2022-12-04T20:46:02.055Z,1.27
2022-12-04T20:54:26.175Z,1.21
2022-12-04T20:57:44.694Z,1.19
2022-12-04T21:01:04.234Z,1.20
2022-12-04T21:09:16.581Z,1.23
2022-12-04T21:12:47.492Z,1.20
2022-12-04T21:16:08.103Z,1.22
2022-12-04T21:24:22.994Z,1.17
2022-12-04T21:27:40.312Z,1.18
2022-12-04T21:30:58.032Z,1.17
2022-12-04T21:34:20.812Z,1.17
2022-12-04T21:40:55.128Z,1.16
2022-12-04T21:44:14.261Z,1.17
2022-12-04T21:47:32.053Z,1.16
2022-12-04T21:50:48.389Z,1.13
2022-12-04T21:54:04.523Z,1.16
2022-12-04T21:57:20.956Z,1.13
2022-12-04T22:00:37.173Z,1.18
2022-12-04T22:03:53.803Z,1.21
2022-12-04T22:07:11.282Z,1.19
2022-12-04T22:10:28.320Z,1.20
2022-12-04T22:13:46.017Z,1.22
2022-12-04T22:17:04.659Z,1.20
2022-12-04T22:20:21.404Z,1.22
2022-12-04T22:23:40.510Z,1.18
2022-12-04T22:26:56.822Z,1.20
2022-12-04T22:30:16.879Z,1.20
2022-12-04T22:33:33.845Z,1.20
2022-12-04T22:36:50.449Z,1.17
2022-12-04T22:40:06.578Z,1.17
2022-12-04T22:43:22.785Z,1.17
2022-12-04T22:46:39.221Z,1.12
2022-12-04T22:49:55.965Z,1.15
2022-12-04T22:57:26.316Z,1.18
2022-12-04T23:00:42.547Z,1.02
2022-12-04T23:03:59.427Z,0.95
2022-12-04T23:10:30.975Z,1.03
2022-12-04T23:13:48.455Z,1.03
2022-12-04T23:17:05.196Z,1.07
2022-12-04T23:20:22.764Z,1.05
2022-12-04T23:23:39.866Z,1.08
2022-12-04T23:26:56.738Z,1.04
2022-12-04T23:30:21.375Z,0.98
2022-12-04T23:33:35.902Z,0.96
2022-12-04T23:36:51.999Z,0.94
2022-12-04T23:40:08.848Z,0.89
2022-12-04T23:43:25.417Z,0.91
2022-12-04T23:46:42.424Z,0.88
2022-12-04T23:50:01.093Z,0.88
2022-12-04T23:56:34.594Z,0.82
2022-12-04T23:59:50.939Z,0.86
